Time;durP1;ratioP1;P1;durP2;ratioP2;P2;SDS_P1;SDS_P2;PMS_P1;PMS_P2;Temp;Humidity;BMP_temperature;BMP_pressure;BME280_temperature;BME280_humidity;BME280_pressure;Samples;Min_cycle;Max_cycle;Signal;HPM_P1;HPM_P2
2022/03/28 00:00:28;;;;;;;34.33;16.90;;;;;;;5.13;66.82;102246.56;5112089;28;20552;-84
2022/03/28 00:02:54;;;;;;;39.00;17.67;;;;;;;5.10;66.44;102239.59;5087328;28;20047;-82
2022/03/28 00:05:20;;;;;;;37.05;16.98;;;;;;;5.05;65.90;102245.19;5074112;28;20042;-82
2022/03/28 00:07:46;;;;;;;38.65;16.83;;;;;;;5.03;64.97;102230.22;5107720;28;20388;-81
2022/03/28 00:10:12;;;;;;;30.10;15.15;;;;;;;4.93;63.96;102229.88;5106624;28;20134;-83
2022/03/28 00:12:39;;;;;;;29.17;14.23;;;;;;;5.11;63.18;102248.47;5107186;28;20020;-83
2022/03/28 00:15:05;;;;;;;30.27;14.13;;;;;;;5.15;62.40;102240.22;5093834;28;20045;-83
2022/03/28 00:17:36;;;;;;;29.55;13.82;;;;;;;5.20;62.08;102243.47;5074209;28;20035;-83
2022/03/28 00:20:05;;;;;;;28.73;14.02;;;;;;;5.30;61.59;102235.81;5109615;28;20499;-83
2022/03/28 00:22:31;;;;;;;31.42;13.60;;;;;;;5.19;61.11;102219.56;5070442;28;20036;-83
2022/03/28 00:24:56;;;;;;;30.37;13.87;;;;;;;5.06;60.03;102233.59;5081567;28;20054;-84
2022/03/28 00:27:23;;;;;;;23.83;11.40;;;;;;;5.10;58.42;102247.59;5072419;28;20362;-83
2022/03/28 00:29:49;;;;;;;19.65;10.73;;;;;;;5.15;57.29;102242.88;5085968;28;20090;-83
2022/03/28 00:32:15;;;;;;;21.33;10.85;;;;;;;5.12;56.71;102245.69;5086448;28;20114;-83
2022/03/28 00:34:41;;;;;;;20.60;10.48;;;;;;;5.20;55.63;102243.47;5092344;28;20551;-83
2022/03/28 00:37:10;;;;;;;28.37;11.00;;;;;;;5.25;52.27;102244.06;5091005;28;20071;-83
2022/03/28 00:39:37;;;;;;;22.48;9.35;;;;;;;5.25;50.43;102233.41;5074979;28;20047;-82
2022/03/28 00:42:04;;;;;;;22.88;9.10;;;;;;;5.27;50.20;102234.16;5075547;28;20065;-82
2022/03/28 00:44:32;;;;;;;18.85;9.43;;;;;;;5.16;50.17;102241.91;5093617;28;20071;-82
2022/03/28 00:46:58;;;;;;;21.55;9.30;;;;;;;5.12;50.62;102251.03;5070538;28;20522;-83
2022/03/28 00:49:25;;;;;;;20.67;9.82;;;;;;;5.09;51.07;102251.22;5120591;28;20035;-83
2022/03/28 00:51:51;;;;;;;21.60;9.88;;;;;;;5.13;51.56;102246.56;5124758;28;20467;-83
2022/03/28 00:54:16;;;;;;;19.07;9.30;;;;;;;5.13;52.71;102255.44;5063525;28;20138;-82
2022/03/28 00:56:43;;;;;;;24.77;10.88;;;;;;;4.97;53.27;102259.91;5074466;28;20278;-83
2022/03/28 00:59:13;;;;;;;25.08;11.68;;;;;;;4.89;53.60;102248.78;5075583;28;20047;-83
2022/03/28 01:01:41;;;;;;;26.55;11.55;;;;;;;4.82;54.53;102248.28;5070938;28;20823;-83
2022/03/28 01:04:07;;;;;;;28.17;12.60;;;;;;;4.89;56.01;102254.13;5115737;28;20035;-83
2022/03/28 01:06:38;;;;;;;25.13;12.52;;;;;;;4.96;55.66;102251.03;5083551;28;20050;-82
2022/03/28 01:09:04;;;;;;;27.40;12.73;;;;;;;4.91;55.97;102247.75;5094242;28;20082;-82
2022/03/28 01:11:29;;;;;;;38.63;13.50;;;;;;;5.00;55.26;102251.72;5115708;28;20047;-83
2022/03/28 01:13:56;;;;;;;26.63;12.15;;;;;;;4.99;54.20;102250.03;5089633;28;20062;-83
2022/03/28 01:16:23;;;;;;;30.77;12.75;;;;;;;5.04;53.03;102258.63;5092951;28;20067;-83
2022/03/28 01:18:49;;;;;;;29.73;12.25;;;;;;;4.93;52.57;102253.88;5111244;28;20043;-83
2022/03/28 01:21:17;;;;;;;24.13;12.98;;;;;;;5.02;51.75;102255.16;5089327;28;20047;-82
2022/03/28 01:23:46;;;;;;;28.70;11.73;;;;;;;5.01;51.23;102261.44;5106354;28;20435;-82
2022/03/28 01:26:14;;;;;;;23.92;10.18;;;;;;;4.90;49.98;102250.53;5106587;28;20028;-83
2022/03/28 01:28:40;;;;;;;22.88;9.30;;;;;;;4.90;49.10;102256.72;5080669;28;20035;-83
2022/03/28 01:31:07;;;;;;;22.35;9.00;;;;;;;4.92;49.03;102272.63;5091873;28;20035;-82
2022/03/28 01:33:35;;;;;;;24.45;9.45;;;;;;;4.87;48.62;102262.22;5087010;28;20705;-83
2022/03/28 01:36:00;;;;;;;22.08;8.82;;;;;;;4.95;48.01;102259.13;5075730;28;20042;-82
2022/03/28 01:38:26;;;;;;;17.07;8.37;;;;;;;4.92;47.37;102259.31;5089805;28;20126;-83
2022/03/28 01:40:52;;;;;;;15.57;7.72;;;;;;;4.84;46.53;102260.56;5069407;28;20232;-83
2022/03/28 01:43:18;;;;;;;18.63;7.95;;;;;;;4.67;44.74;102234.00;5070941;28;20039;-82
2022/03/28 01:45:45;;;;;;;16.25;8.20;;;;;;;4.68;43.30;102246.34;5090970;28;20062;-82
2022/03/28 01:48:10;;;;;;;15.30;8.30;;;;;;;4.69;42.94;102245.44;5090211;28;20048;-82
2022/03/28 01:50:37;;;;;;;21.20;8.27;;;;;;;4.69;43.32;102253.44;5091636;28;20486;-81
2022/03/28 01:53:03;;;;;;;21.27;7.57;;;;;;;4.72;42.58;102249.72;5107479;28;20763;-81
2022/03/28 01:55:29;;;;;;;23.10;7.95;;;;;;;4.76;42.56;102240.63;5103570;28;20027;-81
2022/03/28 01:57:54;;;;;;;22.10;8.45;;;;;;;4.80;42.46;102240.38;5086773;28;20036;-83
2022/03/28 02:00:23;;;;;;;18.80;8.67;;;;;;;4.82;43.17;102251.81;5087756;28;20032;-83
2022/03/28 02:02:50;;;;;;;16.05;8.23;;;;;;;4.88;42.95;102249.75;5069980;28;20047;-81
2022/03/28 02:05:17;;;;;;;20.38;8.70;;;;;;;4.99;42.66;102258.03;5090082;28;20471;-82
2022/03/28 02:07:46;;;;;;;26.02;8.27;;;;;;;5.00;42.35;102251.72;5088513;28;20032;-84
2022/03/28 02:10:15;;;;;;;22.83;7.95;;;;;;;4.97;42.19;102249.25;5110241;28;20120;-81
2022/03/28 02:12:40;;;;;;;20.13;7.80;;;;;;;5.00;42.85;102249.06;5108603;28;20027;-83
2022/03/28 02:15:07;;;;;;;18.33;7.95;;;;;;;4.99;43.14;102255.34;5107156;28;20096;-82
2022/03/28 02:17:33;;;;;;;21.67;8.43;;;;;;;4.92;43.33;102253.97;5096833;28;20513;-82
2022/03/28 02:19:59;;;;;;;30.73;8.48;;;;;;;4.93;43.73;102253.88;5101709;28;20036;-82
2022/03/28 02:22:24;;;;;;;23.07;8.67;;;;;;;5.02;43.18;102256.03;5091673;28;20463;-82
2022/03/28 02:24:50;;;;;;;26.87;8.53;;;;;;;4.97;43.65;102246.56;5108756;28;20296;-81
2022/03/28 02:27:16;;;;;;;17.77;7.97;;;;;;;4.92;44.35;102248.66;5108123;28;20176;-82
2022/03/28 02:29:41;;;;;;;16.67;8.05;;;;;;;4.94;44.31;102257.38;5107268;28;20207;-82
2022/03/28 02:32:09;;;;;;;21.03;8.63;;;;;;;4.84;44.79;102249.06;5087884;28;20097;-81
2022/03/28 02:34:35;;;;;;;17.45;8.15;;;;;;;4.90;44.90;102251.38;5084342;28;20031;-82
2022/03/28 02:37:00;;;;;;;20.52;9.25;;;;;;;4.85;45.07;102237.47;5089196;28;20032;-82
2022/03/28 02:39:26;;;;;;;18.08;8.48;;;;;;;4.83;46.47;102240.19;5109216;28;20541;-82
2022/03/28 02:41:53;;;;;;;16.40;8.50;;;;;;;4.94;46.26;102252.06;5109606;28;20461;-82
2022/03/28 02:44:19;;;;;;;23.52;9.10;;;;;;;4.80;46.05;102248.38;5087500;28;20043;-81
2022/03/28 02:46:47;;;;;;;25.35;8.75;;;;;;;4.85;46.05;102254.31;5061090;28;20471;-81
2022/03/28 02:49:13;;;;;;;19.45;8.98;;;;;;;4.82;46.17;102259.81;5091333;28;20039;-83
2022/03/28 02:51:39;;;;;;;20.52;9.60;;;;;;;4.69;46.87;102258.75;5052738;28;20082;-82
2022/03/28 02:54:06;;;;;;;20.75;9.05;;;;;;;4.78;46.52;102270.72;5084263;28;20093;-81
2022/03/28 02:56:33;;;;;;;20.00;8.95;;;;;;;4.74;46.95;102270.03;5108712;28;20023;-82
2022/03/28 02:58:59;;;;;;;15.70;8.95;;;;;;;4.63;47.45;102269.72;5087728;28;20039;-82
2022/03/28 03:01:25;;;;;;;25.50;9.10;;;;;;;4.49;48.20;102256.31;5084069;28;20093;-81
2022/03/28 03:03:51;;;;;;;17.13;9.15;;;;;;;4.61;48.56;102277.84;5051434;28;20032;-82
2022/03/28 03:06:16;;;;;;;20.93;9.87;;;;;;;4.62;48.46;102279.53;5060949;28;20038;-81
2022/03/28 03:08:42;;;;;;;25.40;9.93;;;;;;;4.60;48.95;102270.75;5107217;28;20023;-82
2022/03/28 03:11:09;;;;;;;20.58;10.05;;;;;;;4.65;48.89;102270.50;5103261;28;20090;-81
2022/03/28 03:13:36;;;;;;;22.83;9.55;;;;;;;4.55;49.42;102261.31;5086260;28;20562;-81
2022/03/28 03:16:06;;;;;;;;;;;;;;;4.52;49.69;102262.34;5075923;28;20035;-81
2022/03/28 03:18:32;;;;;;;19.65;9.68;;;;;;;4.49;50.03;102261.63;5103476;28;19916;-82
2022/03/28 03:20:59;;;;;;;21.55;10.50;;;;;;;4.51;50.34;102265.06;5090537;28;20071;-81
2022/03/28 03:23:26;;;;;;;19.02;10.20;;;;;;;4.49;50.51;102266.97;5087675;28;20036;-82
2022/03/28 03:25:53;;;;;;;29.30;11.43;;;;;;;4.48;51.38;102276.75;5086558;28;20040;-82
2022/03/28 03:28:20;;;;;;;29.10;11.18;;;;;;;4.39;51.63;102288.75;5108120;28;20039;-81
2022/03/28 03:30:46;;;;;;;26.30;11.85;;;;;;;4.28;53.29;102277.81;5084426;28;20191;-80
2022/03/28 03:33:12;;;;;;;;;;;;;;;4.28;54.54;102291.13;5122965;28;20049;-81
2022/03/28 03:35:38;;;;;;;;;;;;;;;4.30;55.82;102294.56;5087443;28;20050;-81
2022/03/28 03:38:04;;;;;;;;;;;;;;;4.28;56.42;102288.44;5075616;28;19949;-81
2022/03/28 03:40:29;;;;;;;;;;;;;;;4.31;55.55;102295.41;5105937;28;20435;-81
2022/03/28 03:42:54;;;;;;;21.00;11.60;;;;;;;4.27;55.91;102293.88;5107967;28;19926;-83
2022/03/28 03:45:21;;;;;;;28.07;11.80;;;;;;;4.19;56.25;102295.13;5087685;28;20054;-82
2022/03/28 03:47:47;;;;;;;26.60;12.00;;;;;;;4.18;57.06;102295.22;5093722;28;20118;-82
2022/03/28 03:50:12;;;;;;;28.10;13.40;;;;;;;4.09;57.80;102301.84;5089776;28;20047;-81
2022/03/28 03:52:38;;;;;;;30.10;14.27;;;;;;;4.13;57.82;102310.56;5086960;28;20511;-83
2022/03/28 03:55:06;;;;;;;26.37;14.90;;;;;;;4.23;57.87;102299.34;5112342;28;20039;-81
2022/03/28 03:57:32;;;;;;;37.63;15.48;;;;;;;4.18;58.25;102311.19;5107553;28;20483;-81
2022/03/28 03:59:59;;;;;;;32.65;16.00;;;;;;;4.19;58.53;102303.13;5093343;28;20040;-82
2022/03/28 04:02:28;;;;;;;46.33;19.67;;;;;;;4.26;58.88;102306.34;5109886;28;20043;-82
2022/03/28 04:04:53;;;;;;;42.28;17.58;;;;;;;4.42;58.91;102312.59;5109727;28;20119;-84
2022/03/28 04:07:19;;;;;;;36.97;17.57;;;;;;;4.49;58.60;102312.25;5092717;28;20523;-84
2022/03/28 04:09:46;;;;;;;40.83;18.87;;;;;;;4.42;58.65;102303.72;5091834;28;20288;-83
2022/03/28 04:12:14;;;;;;;43.33;17.88;;;;;;;4.49;58.31;102320.22;5077972;28;20039;-84
2022/03/28 04:14:42;;;;;;;47.58;19.30;;;;;;;4.52;57.44;102314.72;5109102;28;20372;-82
2022/03/28 04:17:09;;;;;;;44.47;18.23;;;;;;;4.65;56.34;102321.13;5092682;28;20039;-82
2022/03/28 04:19:37;;;;;;;52.15;18.15;;;;;;;4.75;55.92;102322.38;5092646;28;20036;-84
2022/03/28 04:22:03;;;;;;;44.03;18.15;;;;;;;4.70;56.38;102320.88;5068922;28;20132;-83
2022/03/28 04:24:29;;;;;;;47.92;18.52;;;;;;;4.82;56.28;102315.78;5100523;28;20039;-79
2022/03/28 04:26:54;;;;;;;40.33;17.73;;;;;;;4.80;56.41;102307.00;5097850;28;20172;-81
2022/03/28 04:29:21;;;;;;;40.73;16.37;;;;;;;4.77;55.83;102311.63;5107147;28;20428;-79
2022/03/28 04:31:48;;;;;;;47.83;17.95;;;;;;;4.94;55.65;102306.25;5080210;28;20051;-82
2022/03/28 04:34:13;;;;;;;37.83;14.88;;;;;;;5.03;54.38;102297.75;5090594;28;20052;-79
2022/03/28 04:36:38;;;;;;;41.67;16.33;;;;;;;5.07;53.71;102301.94;5075887;28;20040;-80
2022/03/28 04:39:05;;;;;;;38.43;16.23;;;;;;;5.12;53.33;102299.03;5080503;28;20044;-79
2022/03/28 04:41:31;;;;;;;49.40;21.20;;;;;;;5.03;53.51;102291.53;5074614;28;20110;-82
2022/03/28 04:43:58;;;;;;;41.60;18.07;;;;;;;5.24;53.54;102303.69;5083490;28;20111;-82
2022/03/28 04:46:24;;;;;;;34.88;17.73;;;;;;;5.37;52.32;102297.66;5074939;28;20290;-80
2022/03/28 04:48:49;;;;;;;50.67;18.40;;;;;;;5.54;51.53;102305.53;5089572;28;20104;-82
2022/03/28 04:51:17;;;;;;;38.33;18.67;;;;;;;5.62;50.84;102295.31;5072705;28;20048;-80
2022/03/28 04:53:46;;;;;;;40.67;17.92;;;;;;;5.72;50.51;102299.16;5093259;28;20092;-80
2022/03/28 04:56:11;;;;;;;43.38;18.40;;;;;;;5.75;50.78;102313.25;5108613;28;20032;-80
2022/03/28 04:58:38;;;;;;;47.23;20.57;;;;;;;5.66;51.72;102303.97;5088697;28;20089;-81
2022/03/28 05:01:03;;;;;;;49.92;19.90;;;;;;;5.70;52.20;102311.72;5093572;28;20037;-81
2022/03/28 05:03:31;;;;;;;42.90;17.97;;;;;;;5.85;52.37;102309.97;5111930;28;20473;-83
2022/03/28 05:05:57;;;;;;;48.70;19.00;;;;;;;5.96;51.96;102317.38;5099383;28;20075;-81
2022/03/28 05:08:23;;;;;;;39.75;17.83;;;;;;;6.06;51.69;102312.34;5082838;28;20495;-81
2022/03/28 05:10:49;;;;;;;58.43;25.87;;;;;;;5.98;52.56;102294.13;5091935;28;20047;-82
2022/03/28 05:13:14;;;;;;;109.82;45.17;;;;;;;6.19;53.85;102308.00;5110606;28;20028;-81
2022/03/28 05:15:46;;;;;;;101.33;45.93;;;;;;;6.32;55.33;102319.66;5058471;28;20554;-82
2022/03/28 05:18:14;;;;;;;100.07;42.25;;;;;;;6.42;56.17;102309.28;5085749;28;20732;-81
2022/03/28 05:20:41;;;;;;;75.30;32.85;;;;;;;6.44;56.68;102309.16;5093666;28;20054;-82
2022/03/28 05:23:08;;;;;;;66.82;31.27;;;;;;;6.62;56.65;102324.06;5109077;28;20043;-81
2022/03/28 05:25:33;;;;;;;70.90;30.85;;;;;;;6.75;56.63;102324.19;5106090;28;20511;-80
2022/03/28 05:27:59;;;;;;;70.53;32.00;;;;;;;6.82;56.39;102306.81;5068262;28;20063;-82
2022/03/28 05:30:28;;;;;;;67.05;31.70;;;;;;;7.03;55.81;102326.00;5075904;28;20046;-80
2022/03/28 05:32:53;;;;;;;60.95;29.50;;;;;;;7.30;54.91;102317.13;5110685;28;20510;-82
2022/03/28 05:35:19;;;;;;;63.60;29.50;;;;;;;7.43;54.46;102327.94;5074583;28;20092;-80
2022/03/28 05:37:45;;;;;;;61.60;29.17;;;;;;;8.25;52.64;102330.41;5073624;28;20085;-81
2022/03/28 05:40:11;;;;;;;56.23;27.47;;;;;;;10.00;48.04;102310.75;5081943;28;20044;-81
2022/03/28 05:42:36;;;;;;;60.03;29.70;;;;;;;11.28;43.97;102313.16;5087431;28;20368;-79
2022/03/28 05:45:04;;;;;;;56.67;26.83;;;;;;;12.28;41.34;102318.34;5099888;28;20043;-81
2022/03/28 05:47:31;;;;;;;56.38;28.73;;;;;;;13.48;38.86;102310.47;5069861;28;20234;-82
2022/03/28 05:49:58;;;;;;;63.33;27.73;;;;;;;14.85;36.13;102303.06;5082501;28;20100;-82
2022/03/28 05:52:27;;;;;;;51.67;26.40;;;;;;;15.86;34.23;102303.03;5077679;28;20055;-85
2022/03/28 05:54:55;;;;;;;49.80;29.08;;;;;;;16.61;32.47;102298.84;5068838;28;20047;-83
2022/03/28 05:57:21;;;;;;;47.97;22.33;;;;;;;17.23;30.89;102292.34;5079646;28;20508;-83
2022/03/28 05:59:49;;;;;;;41.33;22.08;;;;;;;18.17;29.70;102296.56;5097722;28;20176;-84
2022/03/28 06:02:16;;;;;;;37.95;19.77;;;;;;;18.55;28.23;102281.34;5096065;28;20036;-82
2022/03/28 06:04:43;;;;;;;42.08;19.08;;;;;;;18.89;27.59;102291.13;5086212;28;20141;-80
2022/03/28 06:07:08;;;;;;;34.15;17.65;;;;;;;18.99;27.68;102296.41;5075474;28;20051;-81
2022/03/28 06:09:34;;;;;;;;;;;;;;;19.53;26.82;102292.88;5091821;28;20036;-80
2022/03/28 06:11:59;;;;;;;;;;;;;;;19.71;26.04;102292.59;5093401;28;19922;-82
2022/03/28 06:14:24;;;;;;;26.20;12.00;;;;;;;20.47;24.99;102289.88;5074952;28;19914;-82
2022/03/28 06:16:50;;;;;;;27.75;11.23;;;;;;;20.12;24.38;102284.91;5088521;28;20030;-81
2022/03/28 06:19:18;;;;;;;;;;;;;;;20.12;24.08;102292.25;5112028;28;20035;-80
2022/03/28 06:21:45;;;;;;;22.50;8.70;;;;;;;20.20;24.08;102289.44;5097584;28;19972;-82
2022/03/28 06:24:12;;;;;;;20.25;8.98;;;;;;;20.33;23.63;102292.41;5093563;28;20058;-81
2022/03/28 06:26:39;;;;;;;31.20;9.48;;;;;;;21.41;22.71;102292.84;5093324;28;20491;-84
2022/03/28 06:29:09;;;;;;;33.22;9.30;;;;;;;20.83;23.08;102290.00;5089840;28;20040;-86
2022/03/28 06:31:37;;;;;;;21.10;8.88;;;;;;;21.86;21.98;102282.56;5114821;28;20023;-84
2022/03/28 06:34:07;;;;;;;25.45;9.23;;;;;;;21.68;21.96;102291.22;5099933;28;20568;-84
2022/03/28 06:36:39;;;;;;;26.38;8.57;;;;;;;22.32;21.38;102290.34;5098283;28;20055;-83
2022/03/28 06:39:05;;;;;;;25.88;10.40;;;;;;;22.57;21.07;102295.34;5095191;28;20047;-85
2022/03/28 06:41:31;;;;;;;22.30;8.73;;;;;;;23.00;20.42;102307.03;5082059;28;20031;-82
2022/03/28 06:43:58;;;;;;;23.80;8.38;;;;;;;23.70;19.99;102298.59;5108390;28;20564;-85
2022/03/28 06:46:25;;;;;;;19.77;7.65;;;;;;;23.36;19.64;102282.03;5041340;28;20093;-83
2022/03/28 06:48:57;;;;;;;19.02;7.10;;;;;;;22.93;20.47;102300.63;5069263;28;20415;-82
2022/03/28 06:51:24;;;;;;;28.60;7.65;;;;;;;23.67;19.60;102301.75;5087093;28;20051;-84
2022/03/28 06:53:50;;;;;;;23.70;7.32;;;;;;;23.57;20.07;102289.28;5092777;28;20059;-84
2022/03/28 06:56:24;;;;;;;22.25;7.55;;;;;;;24.27;19.34;102302.66;5063789;28;20059;-85
2022/03/28 06:58:50;;;;;;;23.40;7.40;;;;;;;24.90;18.62;102304.88;5098344;28;20081;-83
2022/03/28 07:01:17;;;;;;;20.17;7.45;;;;;;;25.26;17.81;102303.50;5083146;28;20784;-83
2022/03/28 07:03:42;;;;;;;29.33;7.55;;;;;;;25.63;18.16;102298.22;5081103;28;20063;-82
2022/03/28 07:06:13;;;;;;;26.63;7.28;;;;;;;23.54;19.64;102294.34;5082971;28;20028;-81
2022/03/28 07:08:43;;;;;;;16.88;7.40;;;;;;;22.72;20.64;102307.06;5100799;28;20071;-79
2022/03/28 07:11:09;;;;;;;25.90;6.43;;;;;;;23.10;20.63;102301.16;5087012;28;20123;-84
2022/03/28 07:13:38;;;;;;;24.08;6.32;;;;;;;23.42;19.87;102307.00;5090600;28;20093;-80
2022/03/28 07:16:04;;;;;;;24.20;6.60;;;;;;;23.47;20.49;102296.22;5081100;28;20061;-82
2022/03/28 07:18:29;;;;;;;18.67;5.90;;;;;;;22.69;21.39;102304.75;5103690;28;20023;-84
2022/03/28 07:20:56;;;;;;;21.45;6.53;;;;;;;22.03;21.90;102313.25;5101400;28;20046;-80
2022/03/28 07:23:22;;;;;;;20.98;6.82;;;;;;;21.71;22.09;102316.34;5095299;28;20030;-83
2022/03/28 07:25:48;;;;;;;17.23;6.40;;;;;;;22.02;21.94;102306.94;5088277;28;20487;-84
2022/03/28 07:28:14;;;;;;;18.40;5.90;;;;;;;22.76;21.35;102331.13;5109543;28;20083;-85
2022/03/28 07:30:40;;;;;;;20.27;6.25;;;;;;;22.66;20.84;102325.16;5104683;28;20036;-83
2022/03/28 07:33:06;;;;;;;16.90;5.05;;;;;;;22.11;21.78;102327.66;5101308;28;20043;-84
2022/03/28 07:35:35;;;;;;;23.65;4.63;;;;;;;22.68;21.24;102305.78;5063022;28;20406;-84
2022/03/28 07:38:07;;;;;;;15.25;4.50;;;;;;;22.07;21.39;102309.91;5090369;28;20028;-82
2022/03/28 07:40:33;;;;;;;18.08;4.38;;;;;;;21.65;22.46;102319.84;5087939;28;20061;-82
2022/03/28 07:42:58;;;;;;;17.08;4.18;;;;;;;21.96;21.87;102324.16;5106700;28;20039;-85
2022/03/28 07:45:24;;;;;;;15.13;4.25;;;;;;;22.22;21.51;102318.09;5068665;28;20028;-83
2022/03/28 07:47:50;;;;;;;19.52;4.15;;;;;;;22.48;20.74;102328.41;5087306;28;20038;-83
2022/03/28 07:50:17;;;;;;;17.20;5.30;;;;;;;22.18;21.86;102327.72;5113273;28;20028;-82
2022/03/28 07:52:43;;;;;;;22.98;5.05;;;;;;;22.83;21.37;102320.22;5107153;28;20051;-85
2022/03/28 07:55:10;;;;;;;13.15;5.03;;;;;;;22.67;21.56;102320.53;5104677;28;20039;-84
2022/03/28 07:57:39;;;;;;;15.60;4.30;;;;;;;22.65;22.35;102330.84;5066447;28;20106;-87
2022/03/28 08:00:12;;;;;;;16.77;5.18;;;;;;;22.82;21.88;102323.97;5105505;28;20039;-81
2022/03/28 08:02:42;;;;;;;24.15;5.47;;;;;;;22.22;22.35;102318.09;5086626;28;20035;-80
2022/03/28 08:05:08;;;;;;;24.15;4.13;;;;;;;22.49;21.60;102321.03;5084323;28;20027;-80
2022/03/28 08:07:34;;;;;;;16.48;4.25;;;;;;;22.71;21.24;102327.28;5073280;28;20058;-82
2022/03/28 08:10:01;;;;;;;22.73;4.45;;;;;;;22.46;22.05;102308.59;5085400;28;20051;-82
2022/03/28 08:12:28;;;;;;;21.58;4.50;;;;;;;21.31;22.96;102325.13;5103640;28;20028;-81
2022/03/28 08:14:54;;;;;;;12.75;4.55;;;;;;;21.10;23.63;102291.19;5099548;28;20055;-80
2022/03/28 08:17:20;;;;;;;19.70;4.60;;;;;;;20.61;24.59;102324.59;5101010;28;20035;-81
2022/03/28 08:19:47;;;;;;;15.18;4.47;;;;;;;20.93;24.43;102311.56;5089889;28;20039;-81
2022/03/28 08:22:14;;;;;;;17.13;4.10;;;;;;;21.48;23.20;102299.25;5099960;28;20099;-83
2022/03/28 08:24:43;;;;;;;24.75;4.40;;;;;;;21.97;22.26;102300.38;5091697;28;20059;-83
2022/03/28 08:27:09;;;;;;;16.48;4.07;;;;;;;21.80;22.46;102297.06;5087194;28;20040;-83
2022/03/28 08:29:37;;;;;;;21.33;4.18;;;;;;;22.96;22.02;102290.09;5104194;28;20032;-83
2022/03/28 08:32:02;;;;;;;23.35;4.40;;;;;;;22.31;22.13;102289.53;5088149;28;20058;-84
2022/03/28 08:34:28;;;;;;;23.05;4.20;;;;;;;21.13;23.09;102314.59;5092500;28;20419;-83
2022/03/28 08:36:55;;;;;;;18.02;4.15;;;;;;;21.46;23.33;102296.69;5118523;28;20395;-83
2022/03/28 08:39:20;;;;;;;20.25;3.97;;;;;;;20.85;24.39;102288.75;5092854;28;20039;-87
2022/03/28 08:41:47;;;;;;;13.20;3.53;;;;;;;22.63;23.57;102278.13;5100710;28;20035;-85
2022/03/28 08:44:20;;;;;;;14.65;3.83;;;;;;;22.01;22.21;102269.66;5122058;28;20059;-86
2022/03/28 08:46:49;;;;;;;12.98;3.83;;;;;;;21.65;23.24;102278.78;5091949;28;20495;-86
2022/03/28 08:49:18;;;;;;;19.25;3.92;;;;;;;21.25;24.45;102280.22;5093457;28;20421;-86
2022/03/28 08:51:44;;;;;;;19.17;3.90;;;;;;;21.10;24.97;102277.53;5081261;28;20579;-85
2022/03/28 08:54:09;;;;;;;15.10;3.85;;;;;;;20.99;24.90;102270.66;5091928;28;20039;-86
2022/03/28 08:56:38;;;;;;;12.60;4.10;;;;;;;21.43;24.52;102257.94;5110733;28;20108;-87
2022/03/28 08:59:05;;;;;;;13.07;3.40;;;;;;;21.18;25.41;102268.34;5095104;28;20032;-90
2022/03/28 09:01:31;;;;;;;27.92;4.20;;;;;;;20.86;24.37;102262.28;5064607;28;20415;-85
2022/03/28 09:04:06;;;;;;;8.00;3.10;;;;;;;20.95;23.62;102254.81;5071284;28;20031;-82
2022/03/28 09:06:32;;;;;;;22.40;3.58;;;;;;;22.64;22.11;102257.88;5069287;28;20103;-86
2022/03/28 09:09:23;;;;;;;14.85;3.65;;;;;;;22.43;23.18;102256.94;5111414;28;20025;-85
2022/03/28 09:11:51;;;;;;;17.13;3.83;;;;;;;23.24;22.77;102256.25;5093588;28;20081;-87
2022/03/28 09:14:32;;;;;;;12.30;3.20;;;;;;;22.77;21.75;102249.72;5069427;28;20032;-86
2022/03/28 09:17:13;;;;;;;16.38;3.63;;;;;;;22.99;22.09;102252.38;5088446;28;20059;-89
2022/03/28 09:19:55;;;;;;;18.30;2.80;;;;;;;22.68;19.87;102245.47;5100193;28;20046;-90
2022/03/28 09:22:27;;;;;;;13.60;3.00;;;;;;;21.97;22.11;102251.91;5094586;28;20037;-89
2022/03/28 09:24:57;;;;;;;15.55;3.22;;;;;;;21.84;21.39;102247.16;5091018;28;20019;-89
2022/03/28 09:27:28;;;;;;;16.67;3.13;;;;;;;22.19;21.16;102229.97;5103400;28;20044;-89
2022/03/28 09:30:07;;;;;;;16.25;2.65;;;;;;;21.24;20.47;102243.81;5095579;28;20066;-91
2022/03/28 09:32:49;;;;;;;16.30;3.40;;;;;;;22.72;21.08;102236.63;5095484;28;20034;-90
2022/03/28 09:35:19;;;;;;;18.58;3.17;;;;;;;23.49;20.66;102236.50;5090021;28;20039;-90
2022/03/28 09:37:48;;;;;;;10.52;3.35;;;;;;;23.95;20.64;102235.69;5094318;28;20081;-90
2022/03/28 09:40:37;;;;;;;11.45;3.15;;;;;;;23.09;19.80;102237.22;5095510;28;20414;-91
2022/03/28 09:43:15;;;;;;;19.23;3.20;;;;;;;22.90;21.54;102222.38;5086554;28;20051;-91
2022/03/28 09:45:44;;;;;;;12.57;2.97;;;;;;;23.38;19.53;102214.06;5097769;28;20250;-90
2022/03/28 09:48:11;;;;;;;15.60;2.67;;;;;;;23.77;19.59;102215.22;5108743;28;20062;-90
2022/03/28 09:50:42;;;;;;;16.52;2.70;;;;;;;24.81;17.25;102220.94;5100908;28;20024;-88
2022/03/28 09:53:26;;;;;;;14.65;2.70;;;;;;;22.93;19.53;102205.50;5101383;28;20222;-90
2022/03/28 09:55:56;;;;;;;12.98;2.92;;;;;;;23.50;19.06;102200.56;5082252;28;20475;-89
2022/03/28 09:58:42;;;;;;;13.88;2.50;;;;;;;24.01;18.62;102196.38;5094361;28;20032;-90
2022/03/28 10:01:24;;;;;;;16.38;2.53;;;;;;;25.29;17.54;102187.47;5100491;28;20040;-90
2022/03/28 10:03:52;;;;;;;15.63;2.72;;;;;;;25.43;16.27;102188.22;5105342;28;20035;-90
2022/03/28 10:06:19;;;;;;;11.38;2.65;;;;;;;24.32;17.42;102192.09;5103690;28;20028;-89
2022/03/28 10:08:45;;;;;;;9.18;2.47;;;;;;;23.16;18.90;102194.22;5086306;28;20064;-91
2022/03/28 10:11:11;;;;;;;15.32;3.05;;;;;;;23.43;18.66;102182.41;5082104;28;20568;-91
2022/03/28 10:13:39;;;;;;;19.17;3.05;;;;;;;23.72;18.10;102183.94;5090189;28;20031;-91
2022/03/28 10:16:05;;;;;;;15.02;2.80;;;;;;;25.08;16.12;102182.28;5118860;28;20044;-91
2022/03/28 10:18:32;;;;;;;16.58;3.00;;;;;;;24.88;16.39;102188.72;5098699;28;20487;-90
2022/03/28 10:21:00;;;;;;;17.13;3.30;;;;;;;25.16;17.36;102184.78;5079833;28;20032;-90
2022/03/28 10:23:34;;;;;;;14.93;3.17;;;;;;;24.43;17.70;102178.53;5071359;28;20142;-91
2022/03/28 10:26:04;;;;;;;20.02;3.13;;;;;;;23.55;18.92;102178.00;5101229;28;20027;-91
2022/03/28 10:28:30;;;;;;;13.73;2.55;;;;;;;23.83;18.98;102174.22;5100520;28;20089;-92
2022/03/28 10:31:34;;;;;;;21.00;2.90;;;;;;;22.99;20.82;102167.34;5097918;28;20039;-91
2022/03/28 10:34:01;;;;;;;15.83;3.40;;;;;;;23.84;18.17;102162.19;5050500;28;20047;-91
2022/03/28 10:36:28;;;;;;;13.73;2.70;;;;;;;22.91;18.75;102141.78;5080078;28;20028;-89
2022/03/28 10:38:57;;;;;;;14.65;2.92;;;;;;;23.55;18.83;102150.53;5088142;28;20138;-91
2022/03/28 10:41:24;;;;;;;13.35;2.80;;;;;;;23.79;17.76;102160.09;5101836;28;20031;-90
2022/03/28 10:43:50;;;;;;;14.43;3.10;;;;;;;24.23;17.76;102137.38;5100266;28;20080;-92
2022/03/28 10:46:16;;;;;;;12.25;2.40;;;;;;;23.99;18.36;102152.63;5118901;28;20063;-92
2022/03/28 10:48:42;;;;;;;13.43;2.33;;;;;;;22.54;19.74;102146.72;5085775;28;20040;-91
2022/03/28 10:51:11;;;;;;;16.52;2.97;;;;;;;23.76;18.86;102139.38;5109962;28;20141;-92
2022/03/28 10:53:54;;;;;;;16.98;3.17;;;;;;;22.66;20.45;102124.19;5102545;28;20085;-91
2022/03/28 10:56:38;;;;;;;19.27;2.65;;;;;;;23.73;19.10;102123.28;5090642;28;20027;-93
2022/03/28 10:59:09;;;;;;;17.02;3.30;;;;;;;23.36;19.77;102122.03;5104760;28;20462;-91
2022/03/28 11:01:53;;;;;;;12.13;2.95;;;;;;;23.52;18.88;102101.56;5120986;28;20507;-92
2022/03/28 11:04:20;;;;;;;16.25;2.60;;;;;;;23.92;18.08;102107.88;5086297;28;20534;-90
2022/03/28 11:07:00;;;;;;;12.88;2.70;;;;;;;24.35;17.61;102109.19;5079690;28;20062;-95
2022/03/28 11:09:48;;;;;;;16.85;2.78;;;;;;;24.76;17.39;102099.72;5127127;28;20031;-90
2022/03/28 11:12:20;;;;;;;18.75;2.45;;;;;;;23.51;18.43;102103.47;5124626;28;20042;-85
2022/03/28 11:14:49;;;;;;;17.60;2.50;;;;;;;23.05;19.36;102095.22;5127210;28;20066;-87
2022/03/28 11:17:22;;;;;;;15.80;2.50;;;;;;;22.05;20.68;102098.41;5118829;28;20360;-86
2022/03/28 11:20:06;;;;;;;11.40;3.05;;;;;;;21.13;21.58;102076.69;5090389;28;20110;-85
2022/03/28 11:22:58;;;;;;;12.63;2.70;;;;;;;21.29;20.59;102088.16;5108935;28;20106;-88
2022/03/28 11:25:27;;;;;;;;;;;;;;;20.00;21.09;102082.50;5116891;28;20042;-90